createdAt,value
2022-11-23T00:06:26.308Z,2.33
2022-11-23T00:16:30.651Z,2.39
2022-11-23T00:26:33.725Z,2.34
2022-11-23T00:36:36.784Z,2.31
2022-11-23T00:46:39.866Z,2.33
2022-11-23T00:56:43.022Z,2.23
2022-11-23T01:06:46.189Z,2.28
2022-11-23T01:16:52.341Z,2.39
2022-11-23T01:26:56.133Z,2.29
2022-11-23T01:36:59.463Z,2.19
2022-11-23T01:47:06.881Z,2.23
2022-11-23T01:57:17.895Z,2.29
2022-11-23T02:07:24.258Z,2.20
2022-11-23T02:17:27.425Z,2.17
2022-11-23T02:27:30.753Z,2.20
2022-11-23T02:37:33.994Z,2.13
2022-11-23T02:47:37.071Z,2.16
2022-11-23T02:57:40.136Z,2.24
2022-11-23T03:07:46.226Z,2.24
2022-11-23T03:17:49.740Z,2.14
2022-11-23T03:27:53.126Z,2.20
2022-11-23T03:37:57.157Z,2.36
2022-11-23T03:48:01.050Z,2.21
2022-11-23T03:58:04.726Z,2.07
2022-11-23T04:08:10.720Z,2.09
2022-11-23T04:18:13.976Z,2.15
2022-11-23T04:28:17.506Z,2.07
2022-11-23T04:38:22.617Z,1.98
2022-11-23T04:48:26.001Z,1.94
2022-11-23T04:58:33.158Z,2.05
2022-11-23T05:08:38.350Z,2.00
2022-11-23T05:19:00.125Z,1.92
2022-11-23T05:29:03.800Z,1.94
2022-11-23T05:39:07.770Z,2.04
2022-11-23T05:49:12.551Z,1.94
2022-11-23T05:59:16.645Z,1.80
2022-11-23T06:09:23.735Z,1.78
2022-11-23T06:19:30.940Z,1.82
2022-11-23T06:29:35.020Z,1.82
2022-11-23T06:39:38.785Z,1.65
2022-11-23T06:49:42.513Z,1.60
2022-11-23T06:59:59.365Z,1.65
2022-11-23T07:10:08.643Z,1.76
2022-11-23T07:20:34.680Z,1.75
2022-11-23T07:30:38.117Z,1.61
2022-11-23T07:40:41.529Z,1.61
2022-11-23T07:50:54.825Z,1.77
2022-11-23T08:00:57.978Z,1.65
2022-11-23T08:11:01.057Z,1.53
2022-11-23T08:21:04.574Z,1.60
2022-11-23T08:31:11.960Z,1.81
2022-11-23T08:41:15.508Z,1.64
2022-11-23T08:51:22.868Z,1.40
2022-11-23T09:01:26.270Z,1.32
2022-11-23T09:11:29.417Z,1.29
2022-11-23T09:21:34.496Z,1.27
2022-11-23T09:31:37.864Z,1.47
2022-11-23T09:41:49.755Z,1.68
2022-11-23T09:51:57.080Z,1.81
2022-11-23T10:02:01.349Z,1.82
2022-11-23T10:12:39.841Z,1.70
2022-11-23T10:22:59.565Z,1.70
2022-11-23T10:33:24.849Z,1.69
2022-11-23T10:44:00.195Z,1.59
2022-11-23T10:54:07.532Z,1.58
2022-11-23T11:04:23.033Z,1.61
2022-11-23T11:14:26.464Z,1.72
2022-11-23T11:24:47.410Z,1.62
2022-11-23T11:35:00.975Z,1.64
2022-11-23T11:45:08.095Z,1.83
2022-11-23T11:55:21.548Z,1.98
2022-11-23T12:05:49.761Z,1.95
2022-11-23T12:16:22.148Z,1.93
2022-11-23T12:26:46.681Z,2.05
2022-11-23T12:37:18.703Z,1.93
2022-11-23T12:47:43.189Z,1.78
2022-11-23T12:58:05.895Z,1.87
2022-11-23T13:08:35.689Z,1.76
2022-11-23T13:18:45.937Z,1.68
2022-11-23T13:28:53.564Z,1.81
2022-11-23T13:38:58.267Z,1.86
2022-11-23T13:49:01.812Z,1.76
2022-11-23T13:59:23.447Z,1.63
2022-11-23T14:09:43.209Z,1.63
2022-11-23T14:20:09.176Z,1.65
2022-11-23T14:30:21.439Z,1.64
2022-11-23T14:40:29.425Z,1.58
2022-11-23T14:50:34.091Z,1.60
2022-11-23T15:00:39.507Z,1.63
2022-11-23T15:10:45.597Z,1.46
2022-11-23T15:20:48.770Z,1.30
2022-11-23T15:30:57.970Z,1.23
2022-11-23T15:41:05.391Z,1.27
2022-11-23T15:51:21.532Z,1.18
2022-11-23T16:01:25.348Z,1.06
2022-11-23T16:11:35.506Z,1.02
2022-11-23T16:21:45.238Z,1.17
2022-11-23T16:31:55.203Z,1.28
2022-11-23T16:41:58.338Z,1.21
2022-11-23T16:52:01.434Z,1.10
2022-11-23T17:02:04.604Z,1.17
2022-11-23T17:12:14.820Z,1.19
2022-11-23T17:22:20.396Z,1.14
2022-11-23T17:32:23.621Z,0.99
2022-11-23T17:42:26.895Z,1.08
2022-11-23T17:52:30.011Z,1.08
2022-11-23T18:02:33.132Z,0.95
2022-11-23T18:12:37.346Z,0.78
2022-11-23T18:22:40.580Z,0.83
2022-11-23T18:32:43.741Z,0.95
2022-11-23T18:42:46.939Z,0.91
2022-11-23T18:52:50.197Z,0.74
2022-11-23T19:03:02.669Z,0.78
2022-11-23T19:13:06.294Z,0.86
2022-11-23T19:23:09.444Z,0.70
2022-11-23T19:33:12.584Z,0.63
2022-11-23T19:43:15.679Z,0.57
2022-11-23T19:53:18.840Z,0.64
2022-11-23T20:03:21.980Z,0.61
2022-11-23T20:13:26.390Z,0.50
2022-11-23T20:23:30.165Z,0.57
2022-11-23T20:33:34.059Z,0.64
2022-11-23T20:43:37.141Z,0.59
2022-11-23T20:53:41.822Z,0.46
2022-11-23T21:14:40.934Z,0.52
2022-11-23T21:24:44.202Z,0.46
2022-11-23T21:34:47.345Z,0.32
2022-11-23T21:44:50.401Z,0.28
2022-11-23T21:54:53.568Z,0.35
2022-11-23T22:04:56.923Z,0.25
2022-11-23T22:15:00.261Z,0.16
2022-11-23T22:25:03.811Z,0.16
2022-11-23T22:35:07.506Z,0.16
2022-11-23T22:45:11.357Z,0.17
2022-11-23T22:55:14.748Z,0.08
2022-11-23T23:05:19.574Z,-0.02
2022-11-23T23:15:24.394Z,-0.03
2022-11-23T23:25:27.729Z,0.13
2022-11-23T23:35:30.977Z,0.12
2022-11-23T23:45:34.422Z,0.04
2022-11-23T23:55:37.777Z,0.09
